createdAt,value
2018-10-18T00:00:44.994Z,19.03
2018-10-18T00:06:20.195Z,21.73
2018-10-18T00:08:48.099Z,21.47
2018-10-18T00:11:15.975Z,20.87
2018-10-18T00:13:43.780Z,20.80
2018-10-18T00:16:11.705Z,18.53
2018-10-18T00:18:39.677Z,21.73
2018-10-18T00:21:07.429Z,18.63
2018-10-18T00:23:35.459Z,21.70
2018-10-18T00:26:03.317Z,19.90
2018-10-18T00:28:31.381Z,18.40
2018-10-18T00:30:59.402Z,21.00
2018-10-18T00:33:27.341Z,20.23
2018-10-18T00:35:55.290Z,16.23
2018-10-18T00:38:23.325Z,19.60
2018-10-18T00:40:51.249Z,19.90
2018-10-18T00:43:19.145Z,19.63
2018-10-18T00:45:47.124Z,17.57
2018-10-18T00:48:15.158Z,17.53
2018-10-18T00:50:42.842Z,17.20
2018-10-18T00:53:10.855Z,20.20
2018-10-18T00:55:38.664Z,17.23
2018-10-18T00:58:06.483Z,20.13
2018-10-18T01:00:34.329Z,19.50
2018-10-18T01:03:02.121Z,22.83
2018-10-18T01:05:30.054Z,19.17
2018-10-18T01:07:57.895Z,18.07
2018-10-18T01:10:25.872Z,19.20
2018-10-18T01:12:53.836Z,18.57
2018-10-18T01:15:22.002Z,18.77
2018-10-18T01:17:49.852Z,17.97
2018-10-18T01:20:17.674Z,16.93
2018-10-18T01:22:45.512Z,16.60
2018-10-18T01:25:13.429Z,16.97
2018-10-18T01:27:41.434Z,16.13
2018-10-18T01:30:09.507Z,17.07
2018-10-18T01:32:37.296Z,14.00
2018-10-18T01:35:05.806Z,18.87
2018-10-18T01:37:33.662Z,16.30
2018-10-18T01:40:01.637Z,17.37
2018-10-18T01:42:29.749Z,15.27
2018-10-18T01:44:57.653Z,18.00
2018-10-18T01:47:25.724Z,17.30
2018-10-18T01:49:53.648Z,17.83
2018-10-18T01:52:21.775Z,18.50
2018-10-18T01:54:49.666Z,19.30
2018-10-18T01:57:17.671Z,18.40
2018-10-18T01:59:45.440Z,15.30
2018-10-18T02:02:13.368Z,21.47
2018-10-18T02:04:41.157Z,18.77
2018-10-18T02:07:10.333Z,15.10
2018-10-18T02:09:38.344Z,16.80
2018-10-18T02:12:07.106Z,16.53
2018-10-18T02:14:35.067Z,16.30
2018-10-18T02:17:03.042Z,19.40
2018-10-18T02:19:30.949Z,17.90
2018-10-18T02:21:59.015Z,18.40
2018-10-18T02:24:26.867Z,16.00
2018-10-18T02:26:54.766Z,18.37
2018-10-18T02:29:22.627Z,16.00
2018-10-18T02:31:50.432Z,16.87
2018-10-18T02:34:18.362Z,15.07
2018-10-18T02:36:46.388Z,19.00
2018-10-18T02:39:14.149Z,21.37
2018-10-18T02:41:42.021Z,15.43
2018-10-18T02:44:09.850Z,20.63
2018-10-18T02:46:37.834Z,17.00
2018-10-18T02:49:05.681Z,18.30
2018-10-18T02:51:33.852Z,18.00
2018-10-18T02:54:01.746Z,17.27
2018-10-18T02:56:29.639Z,18.50
2018-10-18T02:58:57.762Z,19.93
2018-10-18T03:01:25.634Z,18.33
2018-10-18T03:03:53.423Z,17.10
2018-10-18T03:06:21.365Z,18.77
2018-10-18T03:08:49.109Z,17.50
2018-10-18T03:11:17.259Z,14.30
2018-10-18T03:13:45.506Z,13.77
2018-10-18T03:16:13.537Z,16.30
2018-10-18T03:18:41.348Z,18.90
2018-10-18T03:21:09.112Z,16.77
2018-10-18T03:23:36.913Z,18.03
2018-10-18T03:26:04.871Z,23.40
2018-10-18T03:28:33.034Z,17.40
2018-10-18T03:31:00.862Z,17.07
2018-10-18T03:33:29.029Z,16.13
2018-10-18T03:35:57.260Z,21.37
2018-10-18T03:38:25.274Z,15.90
2018-10-18T03:40:53.154Z,20.20
2018-10-18T03:43:21.265Z,14.60
2018-10-18T03:45:49.398Z,15.33
2018-10-18T03:48:17.561Z,16.60
2018-10-18T03:50:45.590Z,16.17
2018-10-18T03:53:13.395Z,20.20
2018-10-18T03:55:41.598Z,16.00
2018-10-18T03:58:09.555Z,18.20
2018-10-18T04:00:37.546Z,15.30
2018-10-18T04:03:05.459Z,20.10
2018-10-18T04:05:33.401Z,19.47
2018-10-18T04:08:01.308Z,18.00
2018-10-18T04:10:29.301Z,17.17
2018-10-18T04:12:57.273Z,16.77
2018-10-18T04:15:24.967Z,16.87
2018-10-18T04:17:52.723Z,16.53
2018-10-18T04:20:20.776Z,16.83
2018-10-18T04:22:49.288Z,18.67
2018-10-18T04:25:17.305Z,16.60
2018-10-18T04:27:45.147Z,15.70
2018-10-18T04:30:13.066Z,15.50
2018-10-18T04:32:41.105Z,21.07
2018-10-18T04:35:09.013Z,18.03
2018-10-18T04:37:37.189Z,19.97
2018-10-18T04:40:05.842Z,18.90
2018-10-18T04:42:34.126Z,16.60
2018-10-18T04:45:01.997Z,23.33
2018-10-18T04:47:29.983Z,26.03
2018-10-18T04:49:57.608Z,16.67
2018-10-18T04:52:25.713Z,22.00
2018-10-18T04:54:53.578Z,16.77
2018-10-18T04:57:21.538Z,16.33
2018-10-18T04:59:49.591Z,24.83
2018-10-18T05:02:17.645Z,23.60
2018-10-18T05:04:56.974Z,19.03
2018-10-18T05:07:25.217Z,23.53
2018-10-18T05:09:53.273Z,20.57
2018-10-18T05:12:21.526Z,22.80
2018-10-18T05:14:50.075Z,19.47
2018-10-18T05:17:18.819Z,20.00
2018-10-18T05:19:46.751Z,16.37
2018-10-18T05:22:14.923Z,18.90
2018-10-18T05:24:42.688Z,16.33
2018-10-18T05:27:10.713Z,20.80
2018-10-18T05:29:38.670Z,20.23
2018-10-18T05:32:06.947Z,19.43
2018-10-18T05:34:34.778Z,19.00
2018-10-18T05:37:02.720Z,19.80
2018-10-18T05:39:30.540Z,19.47
2018-10-18T05:41:58.608Z,19.73
2018-10-18T05:44:26.453Z,19.53
2018-10-18T05:46:54.425Z,22.33
2018-10-18T05:49:22.446Z,20.00
2018-10-18T05:51:50.340Z,18.60
2018-10-18T05:54:18.356Z,20.07
2018-10-18T05:56:46.146Z,36.17
2018-10-18T05:59:14.237Z,16.23
2018-10-18T06:01:42.200Z,20.70
2018-10-18T06:04:10.326Z,23.10
2018-10-18T06:06:38.446Z,24.70
2018-10-18T06:09:10.328Z,20.77
2018-10-18T06:11:38.307Z,20.00
2018-10-18T06:14:06.703Z,21.30
2018-10-18T06:16:35.407Z,18.60
2018-10-18T06:19:03.673Z,22.73
2018-10-18T06:21:36.437Z,24.30
2018-10-18T06:24:05.167Z,20.20
2018-10-18T06:26:34.458Z,25.50
2018-10-18T06:29:02.868Z,18.43
2018-10-18T06:31:31.248Z,26.03
2018-10-18T06:34:01.401Z,22.57
2018-10-18T06:36:32.169Z,19.70
2018-10-18T06:39:01.360Z,19.53
2018-10-18T06:41:31.175Z,21.73
2018-10-18T06:44:00.822Z,19.93
2018-10-18T06:46:30.748Z,22.53
2018-10-18T06:48:58.688Z,24.13
2018-10-18T06:51:26.700Z,20.13
2018-10-18T06:53:55.808Z,22.30
2018-10-18T06:56:23.723Z,23.60
2018-10-18T06:58:52.148Z,26.20
2018-10-18T07:01:20.780Z,22.50
2018-10-18T07:03:50.330Z,22.80
2018-10-18T07:06:18.447Z,21.93
2018-10-18T07:08:46.387Z,26.03
2018-10-18T07:11:14.487Z,21.50
2018-10-18T07:13:42.569Z,25.00
2018-10-18T07:16:10.701Z,21.20
2018-10-18T07:18:38.722Z,27.47
2018-10-18T07:21:07.996Z,21.30
2018-10-18T07:23:36.019Z,30.40
2018-10-18T07:26:05.535Z,26.50
2018-10-18T07:28:34.131Z,36.27
2018-10-18T07:31:02.787Z,29.60
2018-10-18T07:33:30.657Z,43.13
2018-10-18T07:35:58.591Z,24.80
2018-10-18T07:38:26.428Z,26.00
2018-10-18T07:40:54.308Z,27.90
2018-10-18T07:43:22.210Z,28.33
2018-10-18T07:45:51.322Z,25.67
2018-10-18T07:48:21.552Z,31.50
2018-10-18T07:50:49.901Z,33.33
2018-10-18T07:53:19.217Z,35.87
2018-10-18T07:55:47.089Z,36.10
2018-10-18T07:58:15.101Z,34.97
2018-10-18T08:00:45.041Z,41.77
2018-10-18T08:03:14.983Z,45.73
2018-10-18T08:05:42.995Z,56.17
2018-10-18T08:08:12.463Z,57.30
2018-10-18T08:10:42.373Z,57.43
2018-10-18T08:13:11.436Z,55.93
2018-10-18T08:15:40.565Z,53.70
2018-10-18T08:18:08.820Z,55.00
2018-10-18T08:20:36.833Z,58.37
2018-10-18T08:23:04.986Z,51.83
2018-10-18T08:25:32.883Z,55.70
2018-10-18T08:28:00.992Z,53.90
2018-10-18T08:30:29.209Z,58.33
2018-10-18T08:32:57.271Z,57.10
2018-10-18T08:35:25.425Z,56.47
2018-10-18T08:37:53.940Z,52.30
2018-10-18T08:40:22.770Z,56.00
2018-10-18T08:42:51.556Z,55.73
2018-10-18T08:45:20.116Z,50.00
2018-10-18T08:47:48.507Z,48.47
2018-10-18T08:50:23.147Z,54.47
2018-10-18T08:52:51.553Z,50.53
2018-10-18T08:55:20.138Z,60.03
2018-10-18T08:57:48.205Z,75.60
2018-10-18T09:00:16.615Z,61.57
2018-10-18T09:02:44.869Z,64.63
2018-10-18T09:05:15.107Z,62.83
2018-10-18T09:07:43.348Z,63.33
2018-10-18T09:10:12.018Z,66.37
2018-10-18T09:12:39.915Z,69.70
2018-10-18T09:15:08.840Z,68.20
2018-10-18T09:17:37.041Z,55.83
2018-10-18T09:20:05.476Z,61.00
2018-10-18T09:22:33.623Z,64.47
2018-10-18T09:25:01.735Z,58.33
2018-10-18T09:27:29.540Z,61.10
2018-10-18T09:29:57.648Z,62.40
2018-10-18T09:32:25.956Z,63.50
2018-10-18T09:34:53.750Z,55.60
2018-10-18T09:37:21.729Z,57.60
2018-10-18T09:39:49.806Z,59.83
2018-10-18T09:42:17.752Z,61.83
2018-10-18T09:44:45.697Z,53.80
2018-10-18T09:47:13.550Z,64.97
2018-10-18T09:49:41.411Z,56.03
2018-10-18T09:52:09.619Z,55.20
2018-10-18T09:54:37.606Z,54.73
2018-10-18T09:57:05.717Z,63.33
2018-10-18T09:59:33.897Z,56.33
2018-10-18T10:02:07.282Z,67.23
2018-10-18T10:04:35.293Z,57.80
2018-10-18T10:07:03.542Z,54.40
2018-10-18T10:09:31.515Z,63.50
2018-10-18T10:11:59.564Z,60.23
2018-10-18T10:14:28.526Z,65.03
2018-10-18T10:16:56.693Z,64.97
2018-10-18T10:19:24.732Z,70.63
2018-10-18T10:21:52.800Z,55.80
2018-10-18T10:24:21.503Z,60.13
2018-10-18T10:26:49.343Z,61.23
2018-10-18T10:29:17.275Z,64.37
2018-10-18T10:31:45.606Z,61.73
2018-10-18T10:34:13.941Z,62.93
2018-10-18T10:36:42.025Z,61.13
2018-10-18T10:39:10.689Z,54.70
2018-10-18T10:41:38.600Z,60.20
2018-10-18T10:44:08.108Z,60.03
2018-10-18T10:46:38.911Z,59.03
2018-10-18T10:49:07.043Z,59.13
2018-10-18T10:51:35.508Z,67.57
2018-10-18T10:54:04.070Z,54.60
2018-10-18T10:56:32.761Z,63.83
2018-10-18T10:59:02.928Z,57.53
2018-10-18T11:01:31.209Z,60.43
2018-10-18T11:03:59.664Z,57.30
2018-10-18T11:06:27.662Z,60.90
2018-10-18T11:08:55.610Z,55.17
2018-10-18T11:11:23.864Z,58.77
2018-10-18T11:13:52.302Z,58.83
2018-10-18T11:16:20.291Z,58.33
2018-10-18T11:18:48.564Z,56.27
2018-10-18T11:21:17.811Z,58.23
2018-10-18T11:23:45.846Z,59.90
2018-10-18T11:26:13.823Z,57.43
2018-10-18T11:28:41.715Z,55.17
2018-10-18T11:31:09.545Z,57.07
2018-10-18T11:33:37.559Z,62.97
2018-10-18T11:36:05.584Z,59.90
2018-10-18T11:38:33.530Z,59.10
2018-10-18T11:41:01.528Z,66.73
2018-10-18T11:43:29.653Z,71.60
2018-10-18T11:45:57.773Z,69.37
2018-10-18T11:48:25.951Z,77.67
2018-10-18T11:50:53.883Z,72.07
2018-10-18T11:53:21.732Z,79.73
2018-10-18T11:55:49.938Z,80.60
2018-10-18T11:58:17.839Z,91.30
2018-10-18T12:00:46.100Z,87.23
2018-10-18T12:03:14.001Z,83.23
2018-10-18T12:05:42.108Z,86.73
2018-10-18T12:08:10.117Z,81.70
2018-10-18T12:10:38.275Z,80.33
2018-10-18T12:13:06.964Z,86.97
2018-10-18T12:15:35.676Z,80.80
2018-10-18T12:18:04.381Z,92.33
2018-10-18T12:20:33.104Z,88.77
2018-10-18T12:23:01.149Z,88.80
2018-10-18T12:25:29.341Z,98.30
2018-10-18T12:27:57.557Z,97.90
2018-10-18T12:30:25.858Z,96.77
2018-10-18T12:32:54.169Z,93.80
2018-10-18T12:35:22.023Z,85.20
2018-10-18T12:37:49.984Z,78.83
2018-10-18T12:40:17.933Z,92.10
2018-10-18T12:42:47.030Z,87.03
2018-10-18T12:45:14.962Z,78.13
2018-10-18T12:47:42.918Z,80.63
2018-10-18T12:50:11.033Z,84.87
2018-10-18T12:52:39.958Z,74.70
2018-10-18T12:55:08.137Z,72.37
2018-10-18T12:57:36.265Z,80.33
2018-10-18T13:00:05.026Z,78.70
2018-10-18T13:02:33.338Z,97.10
2018-10-18T13:05:01.682Z,64.23
2018-10-18T13:07:29.554Z,61.10
2018-10-18T13:09:57.738Z,69.27
2018-10-18T13:12:26.708Z,61.33
2018-10-18T13:14:55.145Z,62.10
2018-10-18T13:17:24.136Z,59.13
2018-10-18T13:19:52.117Z,64.77
2018-10-18T13:22:20.388Z,61.00
2018-10-18T13:24:48.687Z,55.47
2018-10-18T13:27:16.670Z,56.37
2018-10-18T13:29:44.779Z,58.43
2018-10-18T13:32:12.932Z,59.33
2018-10-18T13:34:40.816Z,55.07
2018-10-18T13:37:08.849Z,51.53
2018-10-18T13:39:36.953Z,54.10
2018-10-18T13:42:05.450Z,67.33
2018-10-18T13:44:33.741Z,57.70
2018-10-18T13:47:01.871Z,70.10
2018-10-18T13:49:30.016Z,63.53
2018-10-18T13:51:59.491Z,66.50
2018-10-18T13:54:27.983Z,58.63
2018-10-18T13:56:56.163Z,71.63
2018-10-18T13:59:35.731Z,72.33
2018-10-18T14:02:04.274Z,80.07
2018-10-18T14:04:32.333Z,78.97
2018-10-18T14:07:01.167Z,73.83
2018-10-18T14:09:29.861Z,75.93
2018-10-18T14:11:58.033Z,76.97
2018-10-18T14:14:26.437Z,76.73
2018-10-18T14:16:55.122Z,71.77
2018-10-18T14:19:23.511Z,70.07
2018-10-18T14:21:51.470Z,83.50
2018-10-18T14:24:19.545Z,73.13
2018-10-18T14:26:47.575Z,64.20
2018-10-18T14:29:15.673Z,77.23
2018-10-18T14:31:44.399Z,64.37
2018-10-18T14:34:12.538Z,70.93
2018-10-18T14:36:40.691Z,65.10
2018-10-18T14:39:10.323Z,73.37
2018-10-18T14:41:38.428Z,65.43
2018-10-18T14:44:06.721Z,77.13
2018-10-18T14:46:36.589Z,65.33
2018-10-18T14:49:06.748Z,93.90
2018-10-18T14:51:35.700Z,80.17
2018-10-18T14:54:04.019Z,66.13
2018-10-18T14:56:32.239Z,67.60
2018-10-18T14:59:00.265Z,87.13
2018-10-18T15:01:28.260Z,72.30
2018-10-18T15:03:56.988Z,70.20
2018-10-18T15:06:25.002Z,72.17
2018-10-18T15:08:53.875Z,83.63
2018-10-18T15:11:21.911Z,76.33
2018-10-18T15:13:50.275Z,66.83
2018-10-18T15:16:18.665Z,74.40
2018-10-18T15:18:46.671Z,64.57
2018-10-18T15:21:14.821Z,66.67
2018-10-18T15:23:43.065Z,66.93
2018-10-18T15:26:11.450Z,69.67
2018-10-18T15:28:39.541Z,67.80
2018-10-18T15:31:07.531Z,63.70
2018-10-18T15:33:35.678Z,61.70
2018-10-18T15:36:03.988Z,62.10
2018-10-18T15:38:32.277Z,65.93
2018-10-18T15:41:00.154Z,58.73
2018-10-18T15:43:28.336Z,66.47
2018-10-18T15:45:57.088Z,58.53
2018-10-18T15:48:25.574Z,65.73
2018-10-18T15:50:53.891Z,82.30
2018-10-18T15:53:21.830Z,58.73
2018-10-18T15:55:50.007Z,58.23
2018-10-18T15:58:18.227Z,58.67
2018-10-18T16:00:47.141Z,56.00
2018-10-18T16:03:15.051Z,54.57
2018-10-18T16:05:43.076Z,59.37
2018-10-18T16:08:11.073Z,52.37
2018-10-18T16:10:39.190Z,55.57
2018-10-18T16:13:07.290Z,57.13
2018-10-18T16:15:36.118Z,54.73
2018-10-18T16:18:03.997Z,60.00
2018-10-18T16:20:32.141Z,55.00
2018-10-18T16:23:01.307Z,54.77
2018-10-18T16:25:29.640Z,51.07
2018-10-18T16:27:57.708Z,49.07
2018-10-18T16:30:25.825Z,49.73
2018-10-18T16:32:54.194Z,58.47
2018-10-18T16:35:22.337Z,54.63
2018-10-18T16:37:50.548Z,54.53
2018-10-18T16:40:19.302Z,45.53
2018-10-18T16:42:50.195Z,48.60
2018-10-18T16:45:18.536Z,40.60
2018-10-18T16:47:46.822Z,47.80
2018-10-18T16:50:15.004Z,39.90
2018-10-18T16:52:43.755Z,45.50
2018-10-18T16:55:11.597Z,45.40
2018-10-18T16:57:43.717Z,49.00
2018-10-18T17:00:14.222Z,44.97
2018-10-18T17:02:43.094Z,33.23
2018-10-18T17:05:11.229Z,35.13
2018-10-18T17:07:39.550Z,37.30
2018-10-18T17:10:07.846Z,33.30
2018-10-18T17:12:36.586Z,36.37
2018-10-18T17:15:06.048Z,33.53
2018-10-18T17:17:34.806Z,30.57
2018-10-18T17:20:03.170Z,30.60
2018-10-18T17:22:31.842Z,30.30
2018-10-18T17:24:59.881Z,30.83
2018-10-18T17:27:28.264Z,32.90
2018-10-18T17:29:56.515Z,34.47
2018-10-18T17:32:25.211Z,31.70
2018-10-18T17:34:53.237Z,31.70
2018-10-18T17:37:21.236Z,27.70
2018-10-18T17:39:49.196Z,30.50
2018-10-18T17:42:17.076Z,31.37
2018-10-18T17:44:44.931Z,23.10
2018-10-18T17:47:12.929Z,27.23
2018-10-18T17:49:41.179Z,27.53
2018-10-18T17:52:09.313Z,24.10
2018-10-18T17:54:37.904Z,25.50
2018-10-18T17:57:06.209Z,28.10
2018-10-18T17:59:34.361Z,20.73
2018-10-18T18:02:02.243Z,21.50
2018-10-18T18:04:30.405Z,20.07
2018-10-18T18:06:58.741Z,16.20
2018-10-18T18:09:27.210Z,22.17
2018-10-18T18:11:55.887Z,15.53
2018-10-18T18:14:26.402Z,23.57
2018-10-18T18:16:54.678Z,20.13
2018-10-18T18:19:23.277Z,15.47
2018-10-18T18:21:51.266Z,16.80
2018-10-18T18:24:19.277Z,17.30
2018-10-18T18:26:47.283Z,16.90
2018-10-18T18:29:15.118Z,14.23
2018-10-18T18:31:43.963Z,16.00
2018-10-18T18:34:11.834Z,21.90
2018-10-18T18:36:40.599Z,15.90
2018-10-18T18:39:10.468Z,16.70
2018-10-18T18:41:38.954Z,11.93
2018-10-18T18:44:07.418Z,21.63
2018-10-18T18:46:37.494Z,15.93
2018-10-18T18:49:06.699Z,12.53
2018-10-18T18:51:35.782Z,12.47
2018-10-18T18:54:04.126Z,11.30
2018-10-18T18:56:32.250Z,13.20
2018-10-18T18:59:00.369Z,17.40
2018-10-18T19:01:28.452Z,21.30
2018-10-18T19:03:57.456Z,19.07
2018-10-18T19:06:25.787Z,18.50
2018-10-18T19:08:54.446Z,23.73
2018-10-18T19:11:22.498Z,25.10
2018-10-18T19:13:50.927Z,27.07
2018-10-18T19:16:19.007Z,27.63
2018-10-18T19:18:47.782Z,32.03
2018-10-18T19:21:16.737Z,39.77
2018-10-18T19:23:45.415Z,44.80
2018-10-18T19:26:13.942Z,50.20
2018-10-18T19:28:43.877Z,51.10
2018-10-18T19:31:11.948Z,55.80
2018-10-18T19:33:39.955Z,54.93
2018-10-18T19:36:08.325Z,52.40
2018-10-18T19:38:37.029Z,50.67
2018-10-18T19:41:05.158Z,54.87
2018-10-18T19:43:34.312Z,53.90
2018-10-18T19:46:02.494Z,47.73
2018-10-18T19:48:31.380Z,48.60
2018-10-18T19:50:59.303Z,51.43
2018-10-18T19:53:27.184Z,52.10
2018-10-18T19:55:55.252Z,52.40
2018-10-18T19:58:23.131Z,48.03
2018-10-18T20:00:51.298Z,44.73
2018-10-18T20:03:19.307Z,51.30
2018-10-18T20:05:47.498Z,49.80
2018-10-18T20:08:15.739Z,48.43
2018-10-18T20:10:43.530Z,43.70
2018-10-18T20:13:11.871Z,49.27
2018-10-18T20:15:40.323Z,44.03
2018-10-18T20:18:08.629Z,39.77
2018-10-18T20:20:36.938Z,43.40
2018-10-18T20:23:05.391Z,40.10
2018-10-18T20:25:33.503Z,47.40
2018-10-18T20:28:01.494Z,36.90
2018-10-18T20:30:29.496Z,42.27
2018-10-18T20:32:58.342Z,35.37
2018-10-18T20:35:29.323Z,38.73
2018-10-18T20:37:58.688Z,36.40
2018-10-18T20:40:26.683Z,37.17
2018-10-18T20:42:54.527Z,36.50
2018-10-18T20:45:29.117Z,35.93
2018-10-18T20:47:58.730Z,36.27
2018-10-18T20:50:26.303Z,36.00
2018-10-18T20:52:54.374Z,35.73
2018-10-18T20:55:22.423Z,29.57
2018-10-18T20:57:50.665Z,30.47
2018-10-18T21:00:18.668Z,33.37
2018-10-18T21:02:46.865Z,29.93
2018-10-18T21:05:15.290Z,30.70
2018-10-18T21:07:43.542Z,29.27
2018-10-18T21:10:11.604Z,24.90
2018-10-18T21:12:39.483Z,28.73
2018-10-18T21:15:07.613Z,26.00
2018-10-18T21:17:35.552Z,24.90
2018-10-18T21:20:03.628Z,29.50
2018-10-18T21:22:32.657Z,23.47
2018-10-18T21:25:00.689Z,30.83
2018-10-18T21:27:28.786Z,28.70
2018-10-18T21:29:56.843Z,24.03
2018-10-18T21:32:25.027Z,20.23
2018-10-18T21:34:52.993Z,24.40
2018-10-18T21:37:21.124Z,27.73
2018-10-18T21:39:49.261Z,20.20
2018-10-18T21:42:17.283Z,24.17
2018-10-18T21:44:45.894Z,21.07
2018-10-18T21:47:14.520Z,22.40
2018-10-18T21:49:42.507Z,20.50
2018-10-18T21:52:10.769Z,25.40
2018-10-18T21:54:38.624Z,21.50
2018-10-18T21:57:06.662Z,21.20
2018-10-18T21:59:34.607Z,21.17
2018-10-18T22:02:02.405Z,23.50
2018-10-18T22:04:30.567Z,23.77
2018-10-18T22:06:58.912Z,18.13
2018-10-18T22:09:26.775Z,26.33
2018-10-18T22:11:54.549Z,19.90
2018-10-18T22:14:23.435Z,24.83
2018-10-18T22:16:51.521Z,22.23
2018-10-18T22:19:19.914Z,23.30
2018-10-18T22:21:48.127Z,27.93
2018-10-18T22:24:16.145Z,21.67
2018-10-18T22:26:44.248Z,24.17
2018-10-18T22:29:12.295Z,27.20
2018-10-18T22:31:40.664Z,91.97
2018-10-18T22:34:08.738Z,90.60
2018-10-18T22:36:36.850Z,114.53
2018-10-18T22:39:07.689Z,85.73
2018-10-18T22:41:35.662Z,80.57
2018-10-18T22:44:03.712Z,54.07
2018-10-18T22:46:31.852Z,56.20
2018-10-18T22:48:59.950Z,53.43
2018-10-18T22:51:28.129Z,58.10
2018-10-18T22:53:59.489Z,100.43
2018-10-18T22:56:28.457Z,123.90
2018-10-18T22:58:56.461Z,128.67
2018-10-18T23:01:25.749Z,84.27
2018-10-18T23:03:54.024Z,83.10
2018-10-18T23:06:22.391Z,83.37
2018-10-18T23:08:50.204Z,59.93
2018-10-18T23:11:18.635Z,52.13
2018-10-18T23:13:46.821Z,66.63
2018-10-18T23:16:14.843Z,80.17
2018-10-18T23:18:42.619Z,59.20
2018-10-18T23:21:10.653Z,55.23
2018-10-18T23:23:38.632Z,52.70
2018-10-18T23:26:06.627Z,46.03
2018-10-18T23:28:34.777Z,47.03
2018-10-18T23:31:02.713Z,41.13
2018-10-18T23:33:30.910Z,34.70
2018-10-18T23:35:59.100Z,35.17
2018-10-18T23:38:27.289Z,28.53
2018-10-18T23:40:55.130Z,37.27
2018-10-18T23:43:23.067Z,34.23
2018-10-18T23:45:53.174Z,32.47
2018-10-18T23:48:21.695Z,28.43
2018-10-18T23:50:50.434Z,33.33
2018-10-18T23:53:18.348Z,33.53
2018-10-18T23:55:46.269Z,24.83
2018-10-18T23:58:14.329Z,28.63
